Time;durP1;ratioP1;P1;durP2;ratioP2;P2;SDS_P1;SDS_P2;PMS_P1;PMS_P2;Temp;Humidity;BMP_temperature;BMP_pressure;BME280_temperature;BME280_humidity;BME280_pressure;Samples;Min_cycle;Max_cycle;Signal;HPM_P1;HPM_P2
2022/03/05 00:00:38;;;;;;;;;;;1.60;68.80;;;;;;5095153;28;19934;-74
2022/03/05 00:03:04;;;;;;;;;;;1.50;69.20;;;;;;5094884;28;19999;-73
2022/03/05 00:05:30;;;;;;;;;;;1.50;69.40;;;;;;5094797;28;19908;-73
2022/03/05 00:07:55;;;;;;;;;;;1.70;69.30;;;;;;5094969;28;19942;-73
2022/03/05 00:10:21;;;;;;;;;;;1.60;68.80;;;;;;5094869;28;19908;-73
2022/03/05 00:12:47;;;;;;;;;;;1.60;69.20;;;;;;5094956;28;20017;-73
2022/03/05 00:15:14;;;;;;;;;;;1.50;69.20;;;;;;5094758;28;19909;-73
2022/03/05 00:17:39;;;;;;;;;;;1.30;69.20;;;;;;5094696;28;19946;-73
2022/03/05 00:20:05;;;;;;;;;;;1.00;69.70;;;;;;5094801;28;19954;-73
2022/03/05 00:22:31;;;;;;;;;;;0.70;71.00;;;;;;5094873;28;20431;-73
2022/03/05 00:24:56;;;;;;;;;;;0.40;71.90;;;;;;5094369;28;20019;-73
2022/03/05 00:27:23;;;;;;;;;;;0.40;72.90;;;;;;5094361;28;19986;-73
2022/03/05 00:29:49;;;;;;;;;;;0.40;73.10;;;;;;5094577;28;19908;-73
2022/03/05 00:32:15;;;;;;;;;;;0.60;72.60;;;;;;5092027;22;19971;-72
2022/03/05 00:34:40;;;;;;;;;;;0.60;72.50;;;;;;5053792;28;19948;-72
2022/03/05 00:37:08;;;;;;;;;;;0.60;72.50;;;;;;5053947;28;19908;-72
2022/03/05 00:39:33;;;;;;;;;;;0.40;72.10;;;;;;5054284;28;19912;-72
2022/03/05 00:41:59;;;;;;;;;;;0.40;73.20;;;;;;5054031;28;20290;-72
2022/03/05 00:44:25;;;;;;;;;;;0.40;72.50;;;;;;5053884;28;19917;-71
2022/03/05 00:46:50;;;;;;;;;;;0.40;72.90;;;;;;5035234;28;19963;-72
2022/03/05 00:49:16;;;;;;;;;;;0.30;73.00;;;;;;5054036;28;19952;-72
2022/03/05 00:51:41;;;;;;;;;;;0.40;73.60;;;;;;5053914;28;19951;-72
2022/03/05 00:54:08;;;;;;;;;;;0.40;73.40;;;;;;5035888;28;19992;-72
2022/03/05 00:56:33;;;;;;;;;;;0.60;73.20;;;;;;5053487;28;20265;-71
2022/03/05 00:58:59;;;;;;;;;;;0.80;72.20;;;;;;5053769;28;19916;-72
2022/03/05 01:01:24;;;;;;;;;;;1.00;72.30;;;;;;5053589;28;19962;-72
2022/03/05 01:03:50;;;;;;;;;;;1.10;71.40;;;;;;5053554;28;19999;-72
2022/03/05 01:06:16;;;;;;;;;;;1.20;71.30;;;;;;5053379;28;19909;-72
2022/03/05 01:08:41;;;;;;;;;;;1.30;70.80;;;;;;5053673;28;19909;-72
2022/03/05 01:11:08;;;;;;;;;;;1.20;70.50;;;;;;5053407;28;19909;-72
2022/03/05 01:13:35;;;;;;;;;;;1.10;70.40;;;;;;5053459;28;19916;-71
2022/03/05 01:16:00;;;;;;;;;;;1.00;70.70;;;;;;5053302;28;19920;-72
2022/03/05 01:18:26;;;;;;;;;;;1.10;70.90;;;;;;5053325;28;20338;-72
2022/03/05 01:20:52;;;;;;;;;;;1.00;71.10;;;;;;5053429;28;19908;-72
2022/03/05 01:23:17;;;;;;;;;;;0.90;71.10;;;;;;5053105;28;19913;-71
2022/03/05 01:25:43;;;;;;;;;;;0.90;71.40;;;;;;5051667;28;19913;-72
2022/03/05 01:28:09;;;;;;;;;;;0.70;70.90;;;;;;5053308;28;19915;-72
2022/03/05 01:30:35;;;;;;;;;;;0.60;71.60;;;;;;5053124;28;19967;-71
2022/03/05 01:33:00;;;;;;;;;;;0.50;71.70;;;;;;5053081;28;20379;-72
2022/03/05 01:35:26;;;;;;;;;;;0.50;72.60;;;;;;5052850;28;20012;-72
2022/03/05 01:37:51;;;;;;;;;;;0.50;72.30;;;;;;5053067;28;20257;-71
2022/03/05 01:40:18;;;;;;;;;;;0.70;72.70;;;;;;5052907;28;19908;-72
2022/03/05 01:42:43;;;;;;;;;;;0.90;72.10;;;;;;5052878;28;19948;-72
2022/03/05 01:45:10;;;;;;;;;;;0.90;72.00;;;;;;5051559;28;20199;-71
2022/03/05 01:47:36;;;;;;;;;;;0.80;71.60;;;;;;5052996;28;19917;-72
2022/03/05 01:50:02;;;;;;;;;;;0.70;72.40;;;;;;5052813;28;20395;-72
2022/03/05 01:52:28;;;;;;;;;;;0.70;72.40;;;;;;5034992;28;19909;-72
2022/03/05 01:54:53;;;;;;;;;;;0.70;72.40;;;;;;5052625;28;19915;-72
2022/03/05 01:57:19;;;;;;;;;;;0.70;72.80;;;;;;5051751;28;19909;-72
2022/03/05 01:59:45;;;;;;;;;;;0.70;72.30;;;;;;5052556;28;19909;-71
2022/03/05 02:02:10;;;;;;;;;;;0.70;71.90;;;;;;5051390;28;20355;-72
2022/03/05 02:04:36;;;;;;;;;;;0.80;72.00;;;;;;5052529;28;20287;-71
2022/03/05 02:07:02;;;;;;;;;;;0.60;71.90;;;;;;5052382;28;19908;-72
2022/03/05 02:09:27;;;;;;;;;;;0.40;71.90;;;;;;5052517;28;19962;-71
2022/03/05 02:11:53;;;;;;;;;;;0.20;72.80;;;;;;5051411;28;19917;-71
2022/03/05 02:14:19;;;;;;;;;;;0.10;73.70;;;;;;5052488;28;19955;-72
2022/03/05 02:16:45;;;;;;;;;;;0.10;74.10;;;;;;5051113;28;20407;-71
2022/03/05 02:19:11;;;;;;;;;;;0.10;73.50;;;;;;5052565;28;20008;-72
2022/03/05 02:21:37;;;;;;;;;;;0.00;73.80;;;;;;5052493;28;20006;-71
2022/03/05 02:24:03;;;;;;;;;;;-0.10;74.00;;;;;;5052317;28;20032;-71
2022/03/05 02:26:28;;;;;;;;;;;0.00;74.40;;;;;;5052355;28;19916;-71
2022/03/05 02:28:54;;;;;;;;;;;-0.10;73.90;;;;;;5052494;28;19909;-72
2022/03/05 02:31:20;;;;;;;;;;;-0.30;74.90;;;;;;5017974;28;19948;-72
2022/03/05 02:33:46;;;;;;;;;;;-0.30;75.40;;;;;;5034524;28;20589;-71
2022/03/05 02:36:12;;;;;;;;;;;-0.40;75.60;;;;;;5034376;28;19947;-72
2022/03/05 02:38:37;;;;;;;;;;;-0.40;75.90;;;;;;5050982;28;20376;-72
2022/03/05 02:41:03;;;;;;;;;;;-0.40;76.40;;;;;;5052280;28;20276;-72
2022/03/05 02:43:29;;;;;;;;;;;-0.30;76.20;;;;;;5052090;28;20303;-71
2022/03/05 02:45:54;;;;;;;;;;;-0.20;75.70;;;;;;5052038;28;19909;-72
2022/03/05 02:48:21;;;;;;;;;;;-0.30;75.60;;;;;;5052081;28;19966;-72
2022/03/05 02:50:47;;;;;;;;;;;-0.30;75.80;;;;;;5052209;28;19948;-71
2022/03/05 02:53:13;;;;;;;;;;;-0.30;75.20;;;;;;5052136;28;19995;-72
2022/03/05 02:55:39;;;;;;;;;;;-0.20;75.70;;;;;;5052228;28;20336;-71
2022/03/05 02:58:05;;;;;;;;;;;-0.40;76.10;;;;;;5063021;23;20356;-74
2022/03/05 03:00:31;;;;;;;;;;;-0.50;76.80;;;;;;5071327;28;20007;-71
2022/03/05 03:02:56;;;;;;;;;;;-0.60;77.10;;;;;;5053986;28;20354;-71
2022/03/05 03:05:22;;;;;;;;;;;-0.50;77.30;;;;;;5070758;28;20008;-71
2022/03/05 03:07:48;;;;;;;;;;;-0.50;77.00;;;;;;5072012;28;20002;-71
2022/03/05 03:10:15;;;;;;;;;;;-0.50;76.70;;;;;;5073072;28;19943;-70
2022/03/05 03:12:41;;;;;;;;;;;-0.70;76.00;;;;;;5075677;28;20010;-71
2022/03/05 03:15:08;;;;;;;;;;;-0.70;77.40;;;;;;5074404;28;20294;-70
2022/03/05 03:17:40;;;;;;;;;;;-0.70;77.00;;;;;;5075818;28;19909;-71
2022/03/05 03:20:07;;;;;;;;;;;-0.80;77.60;;;;;;5075632;28;19912;-70
2022/03/05 03:22:32;;;;;;;;;;;-0.90;77.90;;;;;;5075919;28;20291;-70
2022/03/05 03:24:58;;;;;;;;;;;-0.90;78.50;;;;;;5075439;28;19912;-71
2022/03/05 03:27:23;;;;;;;;;;;-0.90;78.40;;;;;;5075368;28;19912;-70
2022/03/05 03:29:49;;;;;;;;;;;-0.90;78.10;;;;;;5075416;28;19908;-71
2022/03/05 03:32:14;;;;;;;;;;;-0.90;77.80;;;;;;5075675;28;19930;-71
2022/03/05 03:34:40;;;;;;;;;;;-0.80;77.90;;;;;;5075292;28;19938;-70
2022/03/05 03:37:06;;;;;;;;;;;-0.80;77.10;;;;;;5075555;28;19966;-70
2022/03/05 03:39:31;;;;;;;;;;;-0.70;77.50;;;;;;5075285;28;19912;-71
2022/03/05 03:41:57;;;;;;;;;;;-0.70;77.20;;;;;;5073934;28;19967;-71
2022/03/05 03:44:22;;;;;;;;;;;-0.70;76.70;;;;;;5075037;28;20387;-71
2022/03/05 03:46:48;;;;;;;;;;;-0.70;76.90;;;;;;5074951;28;20050;-71
2022/03/05 03:49:13;;;;;;;;;;;-0.70;76.70;;;;;;5075116;28;19999;-70
2022/03/05 03:51:39;;;;;;;;;;;-0.80;77.20;;;;;;5075348;28;20443;-71
2022/03/05 03:54:05;;;;;;;;;;;-0.80;77.20;;;;;;5074993;28;19909;-71
2022/03/05 03:56:30;;;;;;;;;;;-0.90;77.40;;;;;;5074788;28;19935;-71
2022/03/05 03:58:56;;;;;;;;;;;-0.80;77.50;;;;;;5074791;28;19924;-71
2022/03/05 04:01:21;;;;;;;;;;;-0.60;76.40;;;;;;5074854;28;19908;-70
2022/03/05 04:03:47;;;;;;;;;;;-0.50;75.70;;;;;;5074706;28;19919;-71
2022/03/05 04:06:13;;;;;;;;;;;-0.60;76.00;;;;;;5073490;28;19931;-71
2022/03/05 04:08:41;;;;;;;;;;;-0.50;75.90;;;;;;5073412;28;19913;-71
2022/03/05 04:11:08;;;;;;;;;;;-0.50;76.20;;;;;;5074709;28;19913;-70
2022/03/05 04:13:33;;;;;;;;;;;-0.60;76.30;;;;;;5074560;28;20355;-71
2022/03/05 04:15:59;;;;;;;;;;;-0.70;76.80;;;;;;5074478;28;19908;-71
2022/03/05 04:18:24;;;;;;;;;;;-0.50;76.70;;;;;;5074539;28;19996;-71
2022/03/05 04:20:50;;;;;;;;;;;-0.70;75.20;;;;;;5073077;28;20366;-71
2022/03/05 04:23:16;;;;;;;;;;;-0.90;75.80;;;;;;5074296;28;20272;-71
2022/03/05 04:25:41;;;;;;;;;;;-1.00;77.40;;;;;;5074280;28;19916;-70
2022/03/05 04:28:07;;;;;;;;;;;-1.00;76.20;;;;;;5074686;28;19962;-70
2022/03/05 04:30:33;;;;;;;;;;;-1.10;75.90;;;;;;5074316;28;19908;-71
2022/03/05 04:32:58;;;;;;;;;;;-1.00;77.10;;;;;;5074199;28;20402;-71
2022/03/05 04:35:24;;;;;;;;;;;-0.90;77.10;;;;;;5074152;28;19913;-71
2022/03/05 04:37:51;;;;;;;;;;;-0.90;77.30;;;;;;5074115;28;19912;-71
2022/03/05 04:40:17;;;;;;;;;;;-0.80;78.00;;;;;;5074162;28;19908;-70
2022/03/05 04:42:43;;;;;;;;;;;-0.80;77.40;;;;;;5074090;28;20376;-71
2022/03/05 04:45:09;;;;;;;;;;;-0.70;76.60;;;;;;5072526;28;19919;-71
2022/03/05 04:47:35;;;;;;;;;;;-0.60;77.30;;;;;;5073897;28;20417;-71
2022/03/05 04:50:01;;;;;;;;;;;-0.60;77.20;;;;;;5074028;28;19909;-71
2022/03/05 04:52:26;;;;;;;;;;;-0.50;77.10;;;;;;5073860;28;19908;-71
2022/03/05 04:54:52;;;;;;;;;;;-0.40;76.40;;;;;;5073721;28;19909;-71
2022/03/05 04:57:19;;;;;;;;;;;-0.40;75.80;;;;;;5072448;28;19909;-70
2022/03/05 04:59:44;;;;;;;;;;;-0.50;75.80;;;;;;5073675;28;19917;-71
2022/03/05 05:02:10;;;;;;;;;;;-0.70;76.40;;;;;;5073598;28;19916;-70
2022/03/05 05:04:35;;;;;;;;;;;-0.90;76.80;;;;;;5072200;28;19920;-71
2022/03/05 05:07:01;;;;;;;;;;;-0.70;77.50;;;;;;5055480;28;20319;-71
2022/03/05 05:09:27;;;;;;;;;;;-0.80;76.30;;;;;;5055558;28;19908;-71
2022/03/05 05:11:52;;;;;;;;;;;-0.90;76.80;;;;;;5055774;28;19920;-70
2022/03/05 05:14:18;;;;;;;;;;;-1.10;77.50;;;;;;5073405;28;19908;-71
2022/03/05 05:16:44;;;;;;;;;;;-1.10;77.90;;;;;;5073270;28;19989;-71
2022/03/05 05:19:24;;;;;;;;;;;-0.90;77.70;;;;;;5073391;28;19931;-71
2022/03/05 05:21:51;;;;;;;;;;;-1.10;77.90;;;;;;5073796;28;19915;-71
2022/03/05 05:24:16;;;;;;;;;;;-1.50;79.10;;;;;;5073053;28;19912;-71
2022/03/05 05:26:42;;;;;;;;;;;-1.50;80.30;;;;;;5055181;28;19962;-70
2022/03/05 05:29:08;;;;;;;;;;;-1.50;80.10;;;;;;5073087;28;20433;-71
2022/03/05 05:31:33;;;;;;;;;;;-1.70;80.60;;;;;;5073068;28;19935;-70
2022/03/05 05:34:00;;;;;;;;;;;-1.90;80.90;;;;;;5071137;28;19909;-71
2022/03/05 05:36:25;;;;;;;;;;;-1.90;81.40;;;;;;5071883;28;19920;-70
2022/03/05 05:38:51;;;;;;;;;;;-2.00;81.80;;;;;;5072937;28;19912;-71
2022/03/05 05:41:18;;;;;;;;;;;-2.00;82.50;;;;;;5072960;28;20398;-71
2022/03/05 05:43:44;;;;;;;;;;;-1.90;81.60;;;;;;5071477;28;19913;-71
2022/03/05 05:46:12;;;;;;;;;;;-1.90;81.00;;;;;;5072748;28;19908;-70
2022/03/05 05:48:38;;;;;;;;;;;-2.10;81.40;;;;;;5072818;28;19909;-70
2022/03/05 05:51:04;;;;;;;;;;;-1.90;81.80;;;;;;5072808;28;20022;-71
2022/03/05 05:53:30;;;;;;;;;;;-1.70;81.40;;;;;;5071381;28;19914;-71
2022/03/05 05:55:55;;;;;;;;;;;-1.60;81.00;;;;;;5071438;28;19908;-71
2022/03/05 05:58:21;;;;;;;;;;;-1.80;80.20;;;;;;5072939;28;19927;-71
2022/03/05 06:00:47;;;;;;;;;;;-1.70;81.30;;;;;;5080444;22;19931;-74
2022/03/05 06:03:13;;;;;;;;;;;-1.90;81.50;;;;;;5072961;28;19916;-72
2022/03/05 06:05:39;;;;;;;;;;;-1.80;81.80;;;;;;5073160;28;19970;-72
2022/03/05 06:08:04;;;;;;;;;;;-1.90;82.40;;;;;;5073133;28;20276;-72
2022/03/05 06:10:30;;;;;;;;;;;-1.90;82.90;;;;;;5073124;28;19909;-72
2022/03/05 06:12:56;;;;;;;;;;;-1.90;82.20;;;;;;5071872;28;20364;-72
2022/03/05 06:15:22;;;;;;;;;;;-1.80;82.80;;;;;;5073152;28;19908;-72
2022/03/05 06:17:48;;;;;;;;;;;-1.90;82.00;;;;;;5071867;28;19908;-73
2022/03/05 06:20:13;;;;;;;;;;;-1.90;83.10;;;;;;5071915;28;19991;-72
2022/03/05 06:22:39;;;;;;;;;;;-1.90;82.70;;;;;;5073298;28;19974;-72
2022/03/05 06:25:05;;;;;;;;;;;-1.60;83.20;;;;;;5073050;28;20034;-72
2022/03/05 06:27:31;;;;;;;;;;;-1.80;82.80;;;;;;5073386;28;19909;-73
2022/03/05 06:29:56;;;;;;;;;;;-1.80;83.80;;;;;;5073071;28;20423;-72
2022/03/05 06:32:22;;;;;;;;;;;-1.50;84.80;;;;;;5084903;22;20038;-72
2022/03/05 06:34:47;;;;;;;;;;;-1.30;83.90;;;;;;5072122;28;19913;-72
2022/03/05 06:37:13;;;;;;;;;;;-1.10;82.70;;;;;;5072042;28;20286;-72
2022/03/05 06:39:40;;;;;;;;;;;-1.00;81.50;;;;;;5072143;28;19961;-72
2022/03/05 06:42:06;;;;;;;;;;;-0.90;81.20;;;;;;5070839;28;19908;-72
2022/03/05 06:44:32;;;;;;;;;;;-1.00;82.00;;;;;;5071809;28;20284;-72
2022/03/05 06:46:58;;;;;;;;;;;-1.00;81.80;;;;;;5075880;28;20276;-72
2022/03/05 06:49:24;;;;;;;;;;;-1.00;83.40;;;;;;5074661;28;19912;-72
2022/03/05 06:51:49;;;;;;;;;;;-0.70;82.80;;;;;;5074673;28;19962;-72
2022/03/05 06:54:15;;;;;;;;;;;-0.70;81.90;;;;;;5076143;28;19916;-72
2022/03/05 06:56:41;;;;;;;;;;;-0.60;82.40;;;;;;5074563;28;19909;-73
2022/03/05 06:59:06;;;;;;;;;;;-0.50;82.60;;;;;;5074593;28;19943;-73
2022/03/05 07:01:32;;;;;;;;;;;-0.90;82.50;;;;;;5075774;28;20287;-73
2022/03/05 07:03:57;;;;;;;;;;;-1.00;84.50;;;;;;5075705;28;20368;-73
2022/03/05 07:06:23;;;;;;;;;;;-0.90;84.70;;;;;;5075765;28;19923;-73
2022/03/05 07:08:49;;;;;;;;;;;-0.80;84.70;;;;;;5074591;28;19915;-73
2022/03/05 07:11:14;;;;;;;;;;;-0.50;84.50;;;;;;5075599;28;19909;-73
2022/03/05 07:13:40;;;;;;;;;;;-0.50;83.30;;;;;;5075613;28;19916;-73
2022/03/05 07:16:06;;;;;;;;;;;-0.40;83.50;;;;;;5075330;28;19970;-73
2022/03/05 07:18:32;;;;;;;;;;;-0.40;83.40;;;;;;5075603;28;19909;-73
2022/03/05 07:20:58;;;;;;;;;;;-0.20;83.80;;;;;;5075589;28;20383;-73
2022/03/05 07:23:24;;;;;;;;;;;-0.30;83.20;;;;;;5075492;28;19923;-73
2022/03/05 07:25:50;;;;;;;;;;;-0.20;84.10;;;;;;5075333;28;19995;-73
2022/03/05 07:28:16;;;;;;;;;;;-0.40;83.50;;;;;;5075804;28;20402;-73
2022/03/05 07:30:45;;;;;;;;;;;-0.30;84.70;;;;;;5074192;28;20394;-73
2022/03/05 07:33:11;;;;;;;;;;;-0.30;84.50;;;;;;5075233;28;19977;-73
2022/03/05 07:35:36;;;;;;;;;;;-0.40;85.50;;;;;;5075264;28;20516;-73
2022/03/05 07:38:02;;;;;;;;;;;-0.30;85.00;;;;;;5075206;28;19920;-73
2022/03/05 07:40:28;;;;;;;;;;;-0.20;84.80;;;;;;5075294;28;19908;-73
2022/03/05 07:42:54;;;;;;;;;;;-0.10;84.70;;;;;;5075182;28;20375;-73
2022/03/05 07:45:19;;;;;;;;;;;-0.30;83.60;;;;;;5073724;28;20425;-73
2022/03/05 07:47:45;;;;;;;;;;;-0.20;85.40;;;;;;5075017;28;20326;-73
2022/03/05 07:50:11;;;;;;;;;;;-0.10;85.20;;;;;;5075030;28;20368;-73
2022/03/05 07:52:37;;;;;;;;;;;-0.20;84.50;;;;;;5074743;28;19909;-73
2022/03/05 07:55:02;;;;;;;;;;;-0.10;85.10;;;;;;5074923;28;20402;-73
2022/03/05 07:57:28;;;;;;;;;;;-0.20;85.50;;;;;;5056004;28;19916;-73
2022/03/05 07:59:54;;;;;;;;;;;0.00;85.20;;;;;;5068765;28;20344;-73
2022/03/05 08:02:19;;;;;;;;;;;0.10;84.50;;;;;;5073194;28;19962;-73
2022/03/05 08:04:46;;;;;;;;;;;0.00;84.90;;;;;;5054866;28;19959;-73
2022/03/05 08:07:12;;;;;;;;;;;0.10;84.90;;;;;;5059646;28;19940;-73
2022/03/05 08:09:37;;;;;;;;;;;0.20;84.20;;;;;;5074745;28;20376;-73
2022/03/05 08:12:03;;;;;;;;;;;0.10;84.40;;;;;;5074547;28;20407;-73
2022/03/05 08:14:29;;;;;;;;;;;-0.10;84.70;;;;;;5073227;28;19908;-74
2022/03/05 08:16:55;;;;;;;;;;;0.00;85.10;;;;;;5074222;28;20271;-73
2022/03/05 08:19:21;;;;;;;;;;;0.20;84.50;;;;;;5073238;28;19908;-73
2022/03/05 08:21:46;;;;;;;;;;;0.20;83.60;;;;;;5073265;28;19908;-73
2022/03/05 08:24:12;;;;;;;;;;;0.10;83.30;;;;;;5072974;28;20375;-72
2022/03/05 08:26:38;;;;;;;;;;;0.20;84.10;;;;;;5074060;28;19915;-73
2022/03/05 08:29:04;;;;;;;;;;;0.20;83.50;;;;;;5074299;28;20268;-73
2022/03/05 08:31:33;;;;;;;;;;;0.40;83.60;;;;;;5074341;28;19908;-73
2022/03/05 08:34:01;;;;;;;;;;;0.50;82.40;;;;;;5056449;28;19928;-72
2022/03/05 08:36:29;;;;;;;;;;;0.40;81.90;;;;;;5053776;28;19909;-73
2022/03/05 08:38:56;;;;;;;;;;;0.50;82.60;;;;;;5036203;28;19920;-73
2022/03/05 08:41:22;;;;;;;;;;;0.60;82.70;;;;;;5053921;28;20245;-72
2022/03/05 08:43:47;;;;;;;;;;;0.50;81.50;;;;;;5053761;28;19919;-73
2022/03/05 08:46:13;;;;;;;;;;;0.70;82.70;;;;;;5069650;28;20365;-74
2022/03/05 08:48:39;;;;;;;;;;;0.60;82.30;;;;;;5073925;28;19909;-72
2022/03/05 08:51:04;;;;;;;;;;;0.60;82.20;;;;;;5070975;28;19961;-72
2022/03/05 08:53:30;;;;;;;;;;;0.70;80.60;;;;;;5064750;28;20468;-72
2022/03/05 08:55:56;;;;;;;;;;;0.90;80.20;;;;;;5065466;28;19908;-72
2022/03/05 08:58:22;;;;;;;;;;;1.10;79.20;;;;;;5065752;28;20256;-73
2022/03/05 09:00:48;;;;;;;;;;;1.30;77.30;;;;;;5072320;28;19909;-73
2022/03/05 09:03:14;;;;;;;;;;;1.30;76.30;;;;;;5054637;28;19913;-73
2022/03/05 09:05:40;;;;;;;;;;;1.40;75.50;;;;;;5069587;28;19962;-73
2022/03/05 09:08:06;;;;;;;;;;;1.30;75.80;;;;;;5060030;28;19908;-73
2022/03/05 09:10:32;;;;;;;;;;;1.50;75.70;;;;;;5073353;28;19915;-73
2022/03/05 09:12:58;;;;;;;;;;;1.60;74.50;;;;;;5063016;28;20015;-74
2022/03/05 09:15:24;;;;;;;;;;;1.80;74.70;;;;;;5066631;28;19912;-73
2022/03/05 09:17:50;;;;;;;;;;;1.90;74.40;;;;;;5073122;28;19912;-73
2022/03/05 09:20:15;;;;;;;;;;;2.00;73.80;;;;;;5063122;28;19908;-73
2022/03/05 09:22:41;;;;;;;;;;;2.10;73.80;;;;;;5058436;28;19920;-73
2022/03/05 09:25:08;;;;;;;;;;;2.40;71.70;;;;;;5059681;28;19977;-73
2022/03/05 09:27:34;;;;;;;;;;;2.50;70.50;;;;;;5071241;28;20360;-73
2022/03/05 09:29:59;;;;;;;;;;;2.70;69.00;;;;;;5073074;28;19957;-73
2022/03/05 09:32:25;;;;;;;;;;;3.00;67.50;;;;;;5041545;28;19913;-73
2022/03/05 09:34:51;;;;;;;;;;;3.30;65.80;;;;;;5052913;28;19991;-73
2022/03/05 09:37:17;;;;;;;;;;;3.50;65.50;;;;;;5034937;28;19909;-73
2022/03/05 09:39:42;;;;;;;;;;;3.60;65.20;;;;;;5052853;28;19912;-73
2022/03/05 09:42:08;;;;;;;;;;;3.80;63.40;;;;;;5066506;28;20296;-73
2022/03/05 09:44:35;;;;;;;;;;;4.10;62.20;;;;;;5071197;28;20082;-73
2022/03/05 09:47:01;;;;;;;;;;;4.40;61.60;;;;;;5072547;28;20551;-73
2022/03/05 09:49:27;;;;;;;;;;;4.40;61.30;;;;;;5072633;28;19948;-73
2022/03/05 09:51:53;;;;;;;;;;;4.90;60.80;;;;;;5072609;28;19912;-73
2022/03/05 09:54:19;;;;;;;;;;;5.40;59.90;;;;;;5072560;28;19947;-72
2022/03/05 09:56:45;;;;;;;;;;;5.90;58.70;;;;;;5072296;28;19915;-72
2022/03/05 09:59:11;;;;;;;;;;;5.90;58.10;;;;;;5071435;28;20003;-72
2022/03/05 10:01:36;;;;;;;;;;;6.20;57.70;;;;;;5071316;28;20368;-73
2022/03/05 10:04:02;;;;;;;;;;;6.40;56.20;;;;;;5072246;28;19912;-73
2022/03/05 10:06:28;;;;;;;;;;;6.40;55.40;;;;;;5072395;28;19909;-73
2022/03/05 10:08:57;;;;;;;;;;;6.60;55.00;;;;;;5072219;28;20003;-73
2022/03/05 10:11:24;;;;;;;;;;;6.80;54.20;;;;;;5072566;28;20252;-73
2022/03/05 10:13:49;;;;;;;;;;;7.00;52.50;;;;;;5058087;28;19984;-73
2022/03/05 10:16:22;;;;;;;;;;;7.00;52.30;;;;;;5071994;28;19946;-73
2022/03/05 10:18:47;;;;;;;;;;;7.20;52.10;;;;;;5071051;28;20419;-74
2022/03/05 10:21:13;;;;;;;;;;;7.90;51.20;;;;;;5063127;28;20061;-72
2022/03/05 10:23:40;;;;;;;;;;;8.10;50.00;;;;;;5052393;28;19913;-74
2022/03/05 10:26:09;;;;;;;;;;;8.20;50.50;;;;;;5050986;28;19909;-72
2022/03/05 10:28:37;;;;;;;;;;;8.70;48.90;;;;;;5052448;28;20375;-73
2022/03/05 10:31:12;;;;;;;;;;;8.70;48.60;;;;;;5052173;28;19954;-73
2022/03/05 10:33:42;;;;;;;;;;;8.10;49.20;;;;;;5051721;28;19920;-72
2022/03/05 10:36:08;;;;;;;;;;;8.50;49.10;;;;;;5052349;28;19909;-75
2022/03/05 10:38:49;;;;;;;;;;;8.70;49.00;;;;;;5051128;28;19939;-73
2022/03/05 10:41:17;;;;;;;;;;;8.70;49.30;;;;;;5052177;28;20279;-73
2022/03/05 10:43:43;;;;;;;;;;;9.20;48.30;;;;;;5033844;28;19956;-73
2022/03/05 10:46:09;;;;;;;;;;;9.30;47.80;;;;;;5051988;28;19956;-72
2022/03/05 10:48:40;;;;;;;;;;;9.80;47.30;;;;;;5051966;28;19908;-73
2022/03/05 10:51:10;;;;;;;;;;;9.90;47.00;;;;;;5052161;28;19909;-73
2022/03/05 10:53:37;;;;;;;;;;;9.80;45.80;;;;;;5051950;28;19951;-73
2022/03/05 10:56:21;;;;;;;;;;;9.90;47.00;;;;;;5051760;28;19909;-73
2022/03/05 10:59:05;;;;;;;;;;;9.60;46.90;;;;;;5051983;28;19909;-72
2022/03/05 11:01:31;;;;;;;;;;;9.70;46.90;;;;;;5050766;28;19915;-72
2022/03/05 11:03:58;;;;;;;;;;;9.60;47.80;;;;;;5050494;28;19913;-72
2022/03/05 11:06:24;;;;;;;;;;;10.40;47.40;;;;;;5050107;28;19920;-73
2022/03/05 11:08:49;;;;;;;;;;;10.80;44.90;;;;;;5051825;28;19912;-73
2022/03/05 11:11:16;;;;;;;;;;;10.60;45.00;;;;;;5051691;28;19916;-72
2022/03/05 11:13:42;;;;;;;;;;;10.30;44.80;;;;;;5051556;28;19908;-72
2022/03/05 11:16:07;;;;;;;;;;;10.30;45.80;;;;;;5051489;28;19962;-72
2022/03/05 11:18:33;;;;;;;;;;;11.10;45.30;;;;;;5050485;28;20011;-72
2022/03/05 11:21:02;;;;;;;;;;;10.30;45.10;;;;;;5050369;28;19908;-73
2022/03/05 11:23:28;;;;;;;;;;;10.70;45.10;;;;;;5051466;28;19913;-73
2022/03/05 11:25:54;;;;;;;;;;;11.20;44.20;;;;;;5051623;28;19932;-72
2022/03/05 11:28:20;;;;;;;;;;;11.30;42.30;;;;;;5051519;28;19936;-72
2022/03/05 11:30:46;;;;;;;;;;;11.00;42.50;;;;;;5051944;28;19979;-72
2022/03/05 11:33:21;;;;;;;;;;;11.30;42.60;;;;;;5054830;28;19916;-72
2022/03/05 11:35:48;;;;;;;;;;;11.80;42.50;;;;;;5055069;28;19909;-72
2022/03/05 11:38:36;;;;;;;;;;;12.00;42.00;;;;;;5053779;28;19919;-72
2022/03/05 11:41:05;;;;;;;;;;;11.60;41.90;;;;;;5055079;28;20292;-72
2022/03/05 11:43:39;;;;;;;;;;;11.70;42.40;;;;;;5036930;28;19921;-72
2022/03/05 11:46:05;;;;;;;;;;;12.00;42.30;;;;;;5053618;28;19997;-72
2022/03/05 11:48:32;;;;;;;;;;;12.10;41.80;;;;;;5055464;28;20418;-72
2022/03/05 11:50:59;;;;;;;;;;;11.80;41.20;;;;;;5054689;28;19909;-73
2022/03/05 11:53:25;;;;;;;;;;;12.00;41.50;;;;;;5053434;28;19909;-72
2022/03/05 11:55:51;;;;;;;;;;;12.30;40.90;;;;;;5054671;28;20307;-72
2022/03/05 11:58:19;;;;;;;;;;;12.50;40.80;;;;;;5054755;28;19916;-72
2022/03/05 12:00:47;;;;;;;;;;;12.00;41.00;;;;;;5054690;28;19916;-72
2022/03/05 12:03:21;;;;;;;;;;;11.70;41.60;;;;;;5054581;28;20015;-72
2022/03/05 12:05:47;;;;;;;;;;;11.30;42.20;;;;;;5036611;28;19960;-72
2022/03/05 12:08:21;;;;;;;;;;;10.80;41.50;;;;;;5054632;28;20071;-72
2022/03/05 12:11:05;;;;;;;;;;;10.40;43.40;;;;;;5054547;28;20292;-72
2022/03/05 12:13:31;;;;;;;;;;;10.70;42.60;;;;;;5054503;28;20376;-73
2022/03/05 12:15:56;;;;;;;;;;;10.90;42.60;;;;;;5053157;28;19948;-72
2022/03/05 12:18:22;;;;;;;;;;;10.60;42.40;;;;;;5053028;28;19915;-72
2022/03/05 12:20:48;;;;;;;;;;;11.00;42.10;;;;;;5052954;28;19917;-72
2022/03/05 12:23:17;;;;;;;;;;;11.70;41.30;;;;;;5054125;28;19913;-72
2022/03/05 12:25:44;;;;;;;;;;;11.50;40.90;;;;;;5054125;28;19916;-72
2022/03/05 12:28:14;;;;;;;;;;;11.80;40.10;;;;;;5054158;28;19948;-73
2022/03/05 12:30:40;;;;;;;;;;;12.10;39.80;;;;;;5054125;28;19909;-73
2022/03/05 12:33:06;;;;;;;;;;;12.30;39.40;;;;;;5063671;22;19975;-72
2022/03/05 12:35:32;;;;;;;;;;;11.60;40.40;;;;;;5033957;28;19916;-72
2022/03/05 12:37:58;;;;;;;;;;;11.60;40.00;;;;;;5033257;28;20372;-72
2022/03/05 12:40:25;;;;;;;;;;;11.40;40.50;;;;;;5034285;28;19959;-72
2022/03/05 12:42:51;;;;;;;;;;;11.80;39.90;;;;;;5034167;28;19909;-72
2022/03/05 12:45:23;;;;;;;;;;;12.50;38.60;;;;;;5033899;28;19928;-72
2022/03/05 12:47:49;;;;;;;;;;;11.60;39.40;;;;;;5034001;28;19955;-72
2022/03/05 12:50:24;;;;;;;;;;;11.80;39.40;;;;;;5033864;28;19914;-72
2022/03/05 12:52:57;;;;;;;;;;;11.50;38.40;;;;;;5034115;28;19909;-73
2022/03/05 12:55:23;;;;;;;;;;;11.10;38.80;;;;;;5034784;28;20020;-72
2022/03/05 12:57:49;;;;;;;;;;;10.40;40.80;;;;;;5034808;28;19916;-72
2022/03/05 13:00:15;;;;;;;;;;;11.30;40.30;;;;;;5034127;28;19909;-72
2022/03/05 13:02:41;;;;;;;;;;;11.80;39.00;;;;;;5032521;28;19910;-72
2022/03/05 13:05:14;;;;;;;;;;;12.20;38.40;;;;;;5033625;28;19992;-72
2022/03/05 13:07:39;;;;;;;;;;;12.20;37.70;;;;;;5033868;28;19932;-72
2022/03/05 13:10:08;;;;;;;;;;;12.10;38.30;;;;;;5033745;28;19909;-72
2022/03/05 13:12:35;;;;;;;;;;;12.10;37.90;;;;;;5033710;28;19978;-72
2022/03/05 13:15:00;;;;;;;;;;;12.10;37.90;;;;;;5033919;28;19909;-72
2022/03/05 13:17:26;;;;;;;;;;;11.80;37.80;;;;;;5033594;28;20179;-72
2022/03/05 13:19:58;;;;;;;;;;;10.90;39.20;;;;;;5033606;28;19991;-72
2022/03/05 13:22:25;;;;;;;;;;;10.70;39.80;;;;;;5033619;28;19968;-72
2022/03/05 13:24:51;;;;;;;;;;;10.30;40.50;;;;;;5033266;28;19919;-72
2022/03/05 13:27:17;;;;;;;;;;;10.00;40.20;;;;;;5031986;28;19909;-72
2022/03/05 13:29:42;;;;;;;;;;;9.40;41.10;;;;;;5032222;28;19920;-72
2022/03/05 13:32:08;;;;;;;;;;;9.40;42.40;;;;;;5033264;28;19910;-72
2022/03/05 13:34:34;;;;;;;;;;;9.30;42.50;;;;;;5031982;28;19940;-72
2022/03/05 13:37:07;;;;;;;;;;;9.30;43.70;;;;;;5033051;28;20280;-72
2022/03/05 13:39:33;;;;;;;;;;;8.60;45.80;;;;;;5031700;28;19913;-72
2022/03/05 13:41:59;;;;;;;;;;;8.10;47.30;;;;;;5031961;28;19916;-72
2022/03/05 13:44:24;;;;;;;;;;;7.90;48.40;;;;;;5032897;28;19913;-72
2022/03/05 13:46:51;;;;;;;;;;;7.90;47.80;;;;;;5033053;28;19921;-72
2022/03/05 13:49:18;;;;;;;;;;;8.10;47.60;;;;;;5031681;28;19916;-72
2022/03/05 13:51:44;;;;;;;;;;;8.50;46.70;;;;;;5031524;28;20311;-72
2022/03/05 13:54:10;;;;;;;;;;;8.30;47.10;;;;;;5032355;28;19916;-72
2022/03/05 13:56:44;;;;;;;;;;;7.80;47.20;;;;;;5031518;28;19910;-72
2022/03/05 13:59:11;;;;;;;;;;;7.40;48.50;;;;;;5031627;28;19954;-72
2022/03/05 14:01:41;;;;;;;;;;;7.30;49.10;;;;;;5032701;28;19909;-72
2022/03/05 14:04:06;;;;;;;;;;;7.60;48.90;;;;;;5032413;28;20299;-72
2022/03/05 14:06:42;;;;;;;;;;;7.80;48.50;;;;;;5031364;28;19992;-72
2022/03/05 14:09:08;;;;;;;;;;;7.80;47.80;;;;;;5032881;28;19971;-70
2022/03/05 14:11:34;;;;;;;;;;;7.40;48.60;;;;;;5031388;28;19913;-70
2022/03/05 14:14:00;;;;;;;;;;;7.40;48.80;;;;;;5032542;28;19931;-70
2022/03/05 14:16:35;;;;;;;;;;;7.20;49.00;;;;;;5031336;28;19966;-70
2022/03/05 14:19:01;;;;;;;;;;;7.30;49.20;;;;;;5032663;28;19905;-71